Time;durP1;ratioP1;P1;durP2;ratioP2;P2;SDS_P1;SDS_P2;PMS_P1;PMS_P2;Temp;Humidity;BMP_temperature;BMP_pressure;BME280_temperature;BME280_humidity;BME280_pressure;Samples;Min_cycle;Max_cycle;Signal;HPM_P1;HPM_P2
2023/09/20 00:00:55;;;;;;;8.50;3.80;;;;;;;13.67;100.00;98948.83;267956;1270;5380563;-85
2023/09/20 00:07:44;;;;;;;5.70;3.60;;;;;;;13.58;100.00;98951.92;272150;1269;22635;-84
2023/09/20 00:13:46;;;;;;;5.50;3.90;;;;;;;13.49;100.00;98955.70;273816;1270;22414;-84
2023/09/20 00:20:14;;;;;;;6.20;3.70;;;;;;;13.42;100.00;98954.61;271091;1270;22552;-84
2023/09/20 00:26:18;;;;;;;4.10;2.90;;;;;;;13.32;100.00;98961.07;270201;1269;22643;-83
2023/09/20 00:33:18;;;;;;;4.90;4.00;;;;;;;13.25;100.00;98963.42;270967;1269;23214;-84
2023/09/20 00:39:20;;;;;;;4.70;3.30;;;;;;;13.21;100.00;98972.99;270802;1269;24301;-84
2023/09/20 00:46:04;;;;;;;7.20;4.40;;;;;;;13.21;100.00;98973.86;272492;1270;22202;-84
2023/09/20 00:52:15;;;;;;;6.70;4.10;;;;;;;13.27;100.00;98977.48;273578;1272;22276;-84
2023/09/20 00:58:25;;;;;;;4.70;4.00;;;;;;;13.30;100.00;98980.46;273568;1277;22243;-84
2023/09/20 01:04:34;;;;;;;6.40;3.90;;;;;;;13.33;100.00;98989.96;272616;1256;22563;-85
2023/09/20 01:10:54;;;;;;;8.10;4.20;;;;;;;13.36;100.00;98993.58;272399;1270;22221;-85
2023/09/20 01:17:17;;;;;;;8.00;4.50;;;;;;;13.41;100.00;98991.23;273792;1269;23076;-85
2023/09/20 01:23:32;;;;;;;7.70;5.10;;;;;;;13.44;100.00;98988.86;273761;1269;22266;-84
2023/09/20 01:29:59;;;;;;;7.80;4.60;;;;;;;13.47;100.00;98987.85;273531;1269;22176;-84
2023/09/20 01:36:25;;;;;;;7.50;3.50;;;;;;;13.50;100.00;98989.02;273613;1277;22191;-84
2023/09/20 01:42:50;;;;;;;10.60;4.10;;;;;;;13.52;100.00;98992.16;273823;1271;22965;-84
2023/09/20 01:49:17;;;;;;;7.00;4.20;;;;;;;13.49;100.00;98994.99;273841;1254;22245;-84
2023/09/20 01:55:31;;;;;;;7.10;3.60;;;;;;;13.41;100.00;98997.90;273891;1269;22377;-85
2023/09/20 02:01:33;;;;;;;6.10;3.70;;;;;;;13.35;100.00;98999.95;273171;1270;22722;-84
2023/09/20 02:07:57;;;;;;;7.90;4.50;;;;;;;13.30;100.00;98996.33;272491;1269;23788;-84
2023/09/20 02:14:41;;;;;;;7.20;3.50;;;;;;;13.22;100.00;98998.61;271853;1266;25429;-85
2023/09/20 02:21:25;;;;;;;4.90;2.70;;;;;;;13.10;100.00;98996.94;271634;1269;22600;-84
2023/09/20 02:28:30;;;;;;;;;;;;;;;;;;;;;
2023/09/20 02:35:04;;;;;;;4.10;3.50;;;;;;;12.87;100.00;99000.73;271432;1269;22487;-85
2023/09/20 02:41:31;;;;;;;4.80;3.10;;;;;;;12.80;100.00;99001.41;270260;1269;22529;-86
2023/09/20 02:48:02;;;;;;;4.60;3.10;;;;;;;12.74;100.00;99004.70;271331;1269;22334;-85
2023/09/20 02:54:43;;;;;;;9.50;2.50;;;;;;;12.63;100.00;99003.95;272317;1269;22417;-85
2023/09/20 03:02:31;;;;;;;6.80;2.80;;;;;;;12.55;100.00;99004.40;273260;1276;22447;-85
2023/09/20 03:09:17;;;;;;;6.10;3.20;;;;;;;12.47;100.00;99002.03;272988;1272;23348;-85
2023/09/20 03:16:36;;;;;;;4.10;2.60;;;;;;;12.36;100.00;99001.05;272981;1272;22500;-85
2023/09/20 03:23:22;;;;;;;5.20;2.70;;;;;;;12.25;100.00;98999.66;272966;1272;22312;-85
2023/09/20 03:30:34;;;;;;;3.40;2.60;;;;;;;12.17;100.00;98996.88;273297;1275;22995;-85
2023/09/20 03:37:10;;;;;;;5.20;2.50;;;;;;;12.12;100.00;99000.62;273504;1253;22290;-85
2023/09/20 03:43:33;;;;;;;3.60;2.70;;;;;;;12.07;100.00;99004.92;273568;1277;22212;-85
2023/09/20 03:50:21;;;;;;;3.40;2.70;;;;;;;12.05;100.00;99002.85;273486;1272;22206;-85
2023/09/20 03:57:35;;;;;;;5.80;3.00;;;;;;;11.99;100.00;99011.45;273594;1277;22207;-85
2023/09/20 04:03:37;;;;;;;2.50;1.50;;;;;;;11.95;100.00;99011.91;273582;1272;22221;-85
2023/09/20 04:09:40;;;;;;;5.10;3.00;;;;;;;11.90;100.00;99010.22;272945;1270;22529;-85
2023/09/20 04:15:42;;;;;;;5.50;2.20;;;;;;;11.83;100.00;99007.58;272689;1269;22932;-85
2023/09/20 04:22:25;;;;;;;4.00;2.20;;;;;;;11.73;100.00;99011.91;273167;1270;22296;-85
2023/09/20 04:29:11;;;;;;;7.90;3.80;;;;;;;11.64;100.00;99018.41;272621;1269;23368;-85
2023/09/20 04:35:37;;;;;;;4.60;3.90;;;;;;;11.57;100.00;99016.63;271880;1269;22540;-85
2023/09/20 04:42:02;;;;;;;4.70;2.30;;;;;;;11.53;100.00;99024.13;273684;1272;23294;-85
2023/09/20 04:48:33;;;;;;;5.60;3.30;;;;;;;11.49;100.00;99032.55;273691;1272;23403;-85
2023/09/20 04:55:00;;;;;;;4.50;2.10;;;;;;;11.46;100.00;99030.80;273671;1255;22255;-85
2023/09/20 05:01:46;;;;;;;4.40;2.60;;;;;;;11.45;100.00;99041.52;273794;1275;22236;-85
2023/09/20 05:07:53;;;;;;;4.70;3.60;;;;;;;11.49;100.00;99043.98;273595;1269;23060;-86
2023/09/20 05:14:18;;;;;;;6.00;3.60;;;;;;;11.63;100.00;99044.10;273916;1276;23138;-85
2023/09/20 05:20:25;;;;;;;6.40;3.90;;;;;;;11.92;100.00;99046.60;273623;1271;22281;-85
2023/09/20 05:26:51;;;;;;;8.60;4.70;;;;;;;12.18;100.00;99055.69;273739;1271;22172;-84
2023/09/20 05:33:14;;;;;;;7.40;3.80;;;;;;;12.51;100.00;99052.73;273903;1265;22185;-84
2023/09/20 05:39:17;;;;;;;8.70;4.70;;;;;;;12.88;100.00;99054.42;273701;1269;22279;-84
2023/09/20 05:46:24;;;;;;;11.70;5.30;;;;;;;13.32;100.00;99057.60;273727;1269;23315;-84
2023/09/20 05:52:25;;;;;;;9.90;5.30;;;;;;;13.77;100.00;99058.70;273563;1276;22977;-84
2023/09/20 05:58:47;;;;;;;12.60;4.60;;;;;;;14.21;100.00;99055.58;273401;1268;22435;-86
2023/09/20 06:04:53;;;;;;;10.30;4.90;;;;;;;14.68;100.00;99053.00;273776;1262;22250;-84
2023/09/20 06:10:55;;;;;;;12.30;5.70;;;;;;;15.03;100.00;99051.79;273745;1277;22212;-84
2023/09/20 06:17:00;;;;;;;8.50;4.90;;;;;;;15.18;100.00;99060.52;273849;1269;22199;-84
2023/09/20 06:23:06;;;;;;;8.40;3.90;;;;;;;15.22;100.00;99061.29;273938;1276;23244;-84
2023/09/20 06:36:34;;;;;;;3.80;3.10;;;;;;;15.41;100.00;99068.76;273555;1268;22398;-84
2023/09/20 06:43:17;;;;;;;6.40;3.60;;;;;;;15.54;100.00;99071.73;273259;1266;22851;-84
2023/09/20 07:04:55;;;;;;;5.50;2.80;;;;;;;15.94;100.00;99080.31;273668;1268;22166;-85
2023/09/20 07:10:57;;;;;;;3.90;2.50;;;;;;;16.13;100.00;99085.25;273304;1269;23838;-84
2023/09/20 07:17:24;;;;;;;8.80;4.60;;;;;;;16.31;100.00;99089.02;272885;1269;22375;-85
2023/09/20 07:24:06;;;;;;;14.10;5.40;;;;;;;16.51;100.00;99089.63;273786;1257;23072;-85
2023/09/20 07:30:14;;;;;;;21.40;5.80;;;;;;;16.65;100.00;99097.91;273869;1267;22406;-84
2023/09/20 07:36:53;;;;;;;15.20;5.80;;;;;;;16.87;100.00;99106.25;273189;1267;22674;-85
2023/09/20 07:43:15;;;;;;;17.40;4.10;;;;;;;17.26;100.00;99110.64;271737;1267;22535;-85
2023/09/20 07:49:55;;;;;;;10.50;3.30;;;;;;;17.77;100.00;99112.77;271126;1267;22557;-84
2023/09/20 07:56:14;;;;;;;3.80;2.10;;;;;;;18.26;100.00;99114.05;271774;1267;22562;-84
2023/09/20 08:02:17;;;;;;;3.30;1.50;;;;;;;18.68;100.00;99110.67;271663;1267;22661;-85
2023/09/20 08:09:01;;;;;;;2.60;1.60;;;;;;;19.17;100.00;99108.33;272911;1267;22205;-85
2023/09/20 08:15:03;;;;;;;4.20;1.50;;;;;;;19.39;100.00;99112.14;273295;1269;22303;-85
2023/09/20 08:21:05;;;;;;;2.50;1.40;;;;;;;19.58;100.00;99108.45;272942;1269;22410;-85
2023/09/20 09:05:48;;;;;;;2.00;1.10;;;;;;;22.33;100.00;99104.25;272079;1267;22536;-86
2023/09/20 09:12:10;;;;;;;3.80;1.10;;;;;;;23.15;100.00;99108.58;272562;1269;22537;-84
2023/09/20 09:25:39;;;;;;;3.80;1.20;;;;;;;24.56;98.50;99114.59;273780;1267;22401;-85
2023/09/20 09:31:41;;;;;;;2.30;1.30;;;;;;;25.33;96.89;99110.90;273889;1267;23157;-83
2023/09/20 09:38:08;;;;;;;3.20;1.20;;;;;;;26.14;94.21;99103.90;273988;1269;22276;-84
2023/09/20 09:44:14;;;;;;;5.00;1.10;;;;;;;26.93;91.48;99103.34;274001;1270;22187;-82
2023/09/20 09:50:16;;;;;;;;;;;;;;;27.49;88.25;99101.27;273936;1270;22390;-81
2023/09/20 09:56:18;;;;;;;2.80;1.60;;;;;;;27.95;85.15;99099.29;273386;1267;22370;-84
2023/09/20 10:02:21;;;;;;;4.00;1.30;;;;;;;28.17;81.59;99088.45;273728;1267;23158;-84
2023/09/20 10:08:24;;;;;;;3.70;1.40;;;;;;;28.19;79.38;99087.26;273778;1266;22372;-82
2023/09/20 10:14:49;;;;;;;2.80;1.50;;;;;;;28.41;78.16;99090.92;273937;1275;22184;-82
2023/09/20 10:21:34;;;;;;;2.60;1.30;;;;;;;28.62;75.82;99090.48;272658;1267;25265;-83
2023/09/20 10:27:56;;;;;;;4.10;0.90;;;;;;;28.77;72.52;99083.18;272968;1266;22454;-83
2023/09/20 10:33:57;;;;;;;3.60;0.90;;;;;;;28.90;70.63;99080.09;272466;1259;22577;-84
2023/09/20 10:40:28;;;;;;;2.10;1.20;;;;;;;28.97;68.82;99077.29;272000;1251;25519;-83
2023/09/20 10:47:05;;;;;;;7.40;2.50;;;;;;;28.87;66.51;99076.88;271991;1269;22217;-84
2023/09/20 10:53:10;;;;;;;2.20;1.10;;;;;;;28.83;63.51;99068.66;272182;1269;22375;-84
2023/09/20 10:59:16;;;;;;;2.10;0.70;;;;;;;28.57;62.34;99061.29;272377;1267;23807;-83
2023/09/20 11:05:52;;;;;;;1.50;0.90;;;;;;;28.20;61.52;99054.59;273978;1270;22297;-83
2023/09/20 11:11:55;;;;;;;1.70;0.80;;;;;;;27.99;59.98;99046.19;274064;1274;22175;-84
2023/09/20 11:18:38;;;;;;;3.50;1.00;;;;;;;27.63;59.85;99036.85;273783;1267;23133;-83
2023/09/20 11:25:14;;;;;;;2.40;1.00;;;;;;;26.77;58.94;99030.27;273700;1259;22951;-83
2023/09/20 11:32:05;;;;;;;3.80;1.10;;;;;;;26.18;59.50;99021.73;273789;1272;22181;-83
2023/09/20 11:38:41;;;;;;;2.30;1.00;;;;;;;25.84;59.17;99019.69;273960;1270;22176;-83
2023/09/20 11:45:03;;;;;;;1.00;0.70;;;;;;;25.57;58.96;99011.48;273921;1269;22234;-84
2023/09/20 11:51:30;;;;;;;1.80;0.80;;;;;;;25.22;58.30;99012.80;272758;1269;22250;-82
2023/09/20 11:58:16;;;;;;;1.90;1.00;;;;;;;24.70;57.85;99009.05;269772;1270;5380869;-83
2023/09/20 12:04:18;;;;;;;3.10;0.90;;;;;;;24.30;58.23;99002.92;274000;1275;23866;-83
2023/09/20 12:10:20;;;;;;;4.10;1.00;;;;;;;24.09;58.40;99000.66;273734;1267;22281;-83
2023/09/20 12:16:48;;;;;;;1.70;0.90;;;;;;;23.89;58.56;98993.84;273484;1269;22252;-83
2023/09/20 12:22:50;;;;;;;1.50;0.90;;;;;;;23.70;58.80;98988.74;273503;1269;22129;-84
2023/09/20 12:29:11;;;;;;;2.60;1.00;;;;;;;23.57;59.53;98983.56;273864;1267;22122;-84
2023/09/20 12:35:13;;;;;;;1.20;0.70;;;;;;;23.34;59.72;98973.63;273866;1269;22584;-83
2023/09/20 12:41:15;;;;;;;1.40;0.80;;;;;;;23.15;59.96;98975.64;272137;1267;23455;-84
2023/09/20 12:48:01;;;;;;;2.00;0.90;;;;;;;23.04;59.97;98971.13;273905;1269;22439;-84
2023/09/20 12:54:06;;;;;;;1.30;0.80;;;;;;;22.98;60.66;98965.33;273871;1269;22181;-83
2023/09/20 13:00:09;;;;;;;2.10;0.90;;;;;;;22.93;60.77;98962.83;274098;1274;22237;-82
2023/09/20 13:06:36;;;;;;;5.20;1.10;;;;;;;22.88;61.27;98957.56;273864;1267;22416;-83
2023/09/20 13:12:41;;;;;;;1.30;0.60;;;;;;;22.79;61.39;98951.88;274083;1269;22947;-83
2023/09/20 13:19:05;;;;;;;2.20;1.10;;;;;;;22.63;62.12;98945.00;274178;1274;22204;-84
2023/09/20 13:25:08;;;;;;;2.30;1.00;;;;;;;22.55;62.46;98946.19;273553;1266;22459;-86
2023/09/20 13:38:49;;;;;;;1.90;1.00;;;;;;;22.50;63.91;98934.15;274129;1267;24382;-82
2023/09/20 13:44:56;;;;;;;3.40;0.80;;;;;;;22.42;64.08;98930.55;271395;1267;22447;-85
2023/09/20 13:50:59;;;;;;;3.20;1.20;;;;;;;22.35;64.17;98929.34;272901;1267;22386;-86
2023/09/20 13:57:06;;;;;;;1.90;1.10;;;;;;;22.46;63.70;98933.19;271659;1267;23346;-84
2023/09/20 14:03:08;;;;;;;2.70;1.10;;;;;;;22.55;63.75;98928.42;270472;1267;23243;-85
2023/09/20 14:09:13;;;;;;;2.30;1.30;;;;;;;22.49;64.57;98922.98;272298;1267;23845;-85
2023/09/20 14:16:04;;;;;;;2.00;1.20;;;;;;;22.37;65.53;98914.98;272143;1263;22447;-86
2023/09/20 14:22:06;;;;;;;2.70;1.00;;;;;;;22.30;66.11;98910.52;272667;1269;25259;-85
2023/09/20 14:28:12;;;;;;;2.20;1.30;;;;;;;22.28;65.91;98900.50;272040;1268;22218;-86
2023/09/20 14:34:21;;;;;;;2.40;1.00;;;;;;;22.22;66.12;98894.52;274134;1274;22166;-85
2023/09/20 14:40:23;;;;;;;1.90;1.00;;;;;;;22.13;66.34;98890.95;273273;1271;22555;-86
2023/09/20 14:46:36;;;;;;;2.30;1.40;;;;;;;22.03;66.59;98889.74;272770;1267;25338;-84
2023/09/20 14:52:39;;;;;;;2.00;1.30;;;;;;;21.94;66.87;98882.25;273278;1267;22194;-85
2023/09/20 14:59:23;;;;;;;2.70;1.50;;;;;;;21.96;67.15;98874.06;273979;1267;23416;-85
2023/09/20 15:05:28;;;;;;;2.80;1.30;;;;;;;21.89;67.73;98874.35;274145;1273;22787;-85
2023/09/20 15:11:34;;;;;;;2.00;0.90;;;;;;;21.82;68.38;98870.04;274084;1268;22191;-85
2023/09/20 15:17:40;;;;;;;2.00;1.10;;;;;;;21.76;68.57;98872.63;273531;1267;23659;-85
2023/09/20 15:23:50;;;;;;;2.30;1.00;;;;;;;21.66;68.90;98875.41;274135;1272;22827;-85
2023/09/20 15:30:36;;;;;;;4.20;1.10;;;;;;;21.60;69.36;98872.45;273089;1267;22478;-85
2023/09/20 15:36:43;;;;;;;1.70;1.20;;;;;;;21.55;69.46;98873.91;272608;1267;22525;-85
2023/09/20 15:43:06;;;;;;;2.80;0.90;;;;;;;21.49;69.73;98871.66;274163;1274;22224;-85
2023/09/20 15:56:25;;;;;;;3.00;1.20;;;;;;;21.25;70.66;98865.65;272907;1267;22531;-84
2023/09/20 16:02:48;;;;;;;1.60;1.00;;;;;;;21.15;71.33;98865.82;270773;1267;22582;-85
2023/09/20 16:08:58;;;;;;;2.80;1.10;;;;;;;21.05;72.04;98863.03;271144;1267;22761;-86
2023/09/20 16:15:03;;;;;;;4.20;1.00;;;;;;;20.93;73.12;98867.48;273416;1257;23662;-86
2023/09/20 16:21:35;;;;;;;4.30;1.10;;;;;;;20.79;73.82;98860.30;274083;1274;22179;-85
2023/09/20 16:28:05;;;;;;;12.10;2.20;;;;;;;20.57;74.83;98859.35;274057;1270;22194;-85
2023/09/20 16:34:23;;;;;;;;;;;;;;;20.34;76.77;98865.36;274010;1267;23072;-85
2023/09/20 16:40:26;;;;;;;4.00;2.10;;;;;;;20.11;78.26;98864.44;274050;1274;22163;-86
2023/09/20 16:46:53;;;;;;;13.20;2.50;;;;;;;19.90;79.01;98863.61;274079;1274;22368;-85
2023/09/20 16:52:55;;;;;;;12.90;3.10;;;;;;;19.63;80.10;98864.22;273717;1267;22426;-85
2023/09/20 16:59:09;;;;;;;9.70;2.30;;;;;;;19.42;81.50;98866.15;273904;1267;23488;-85
2023/09/20 17:05:32;;;;;;;7.50;2.70;;;;;;;19.23;82.62;98871.04;266264;1270;10001866;-85
2023/09/20 17:12:15;;;;;;;10.30;2.90;;;;;;;19.06;83.59;98875.98;274063;1267;22153;-85
2023/09/20 17:18:52;;;;;;;8.80;3.40;;;;;;;18.83;84.16;98877.33;273907;1267;22092;-85
2023/09/20 17:33:02;;;;;;;5.10;2.70;;;;;;;18.35;86.08;98882.69;274013;1273;23433;-86
2023/09/20 17:39:47;;;;;;;4.70;2.30;;;;;;;18.19;87.21;98884.05;274032;1274;23417;-85
2023/09/20 17:45:54;;;;;;;6.70;2.50;;;;;;;18.10;88.72;98889.65;273874;1267;22282;-85
2023/09/20 17:51:58;;;;;;;19.30;12.00;;;;;;;17.92;89.49;98896.42;273963;1272;22256;-85
2023/09/20 17:58:27;;;;;;;22.70;13.30;;;;;;;17.75;89.89;98899.13;274036;1267;22244;-85
2023/09/20 18:04:39;;;;;;;6.50;3.80;;;;;;;17.65;90.47;98901.52;274002;1269;22181;-84
2023/09/20 18:11:22;;;;;;;8.70;6.00;;;;;;;17.47;91.46;98905.27;273874;1267;22521;-84
2023/09/20 18:17:49;;;;;;;8.90;5.80;;;;;;;17.33;92.04;98906.52;274017;1267;22205;-83
2023/09/20 18:23:52;;;;;;;;;;;;;;;17.19;92.38;98905.65;274029;1272;23212;-83
2023/09/20 18:30:17;;;;;;;9.90;4.50;;;;;;;16.93;93.11;98906.46;273879;1251;22207;-84
2023/09/20 18:36:41;;;;;;;9.90;4.40;;;;;;;16.67;94.56;98910.20;273959;1274;23560;-84
2023/09/20 18:42:46;;;;;;;8.70;5.00;;;;;;;16.45;94.94;98908.98;274014;1273;22192;-84
2023/09/20 18:48:49;;;;;;;11.30;5.40;;;;;;;16.39;95.72;98912.75;273701;1264;22198;-84
2023/09/20 18:55:15;;;;;;;12.30;5.20;;;;;;;16.34;96.19;98917.41;273784;1267;22360;-84
2023/09/20 19:01:59;;;;;;;9.20;4.50;;;;;;;16.23;96.77;98912.02;273950;1264;23619;-84
2023/09/20 19:08:06;;;;;;;11.70;6.10;;;;;;;16.14;97.45;98914.67;273997;1274;22341;-84
2023/09/20 19:15:10;;;;;;;10.10;4.40;;;;;;;16.03;97.93;98917.80;273974;1267;22192;-84
2023/09/20 19:21:33;;;;;;;10.10;5.60;;;;;;;15.93;98.43;98918.94;273953;1267;22162;-84
2023/09/20 19:27:36;;;;;;;11.40;5.30;;;;;;;15.81;98.62;98918.29;273961;1267;22388;-84
2023/09/20 19:34:20;;;;;;;12.30;5.80;;;;;;;15.58;98.72;98911.52;273805;1269;22201;-84
2023/09/20 19:40:48;;;;;;;12.20;6.40;;;;;;;15.48;99.69;98916.27;274079;1270;22354;-83
2023/09/20 19:46:55;;;;;;;12.00;5.30;;;;;;;15.45;100.00;98916.06;273804;1267;23573;-84
2023/09/20 19:53:42;;;;;;;13.40;5.70;;;;;;;15.39;100.00;98917.67;273954;1264;22224;-83
2023/09/20 20:00:24;;;;;;;14.50;5.60;;;;;;;15.30;100.00;98919.32;274001;1267;23385;-84
2023/09/20 20:06:26;;;;;;;13.00;5.00;;;;;;;15.22;100.00;98916.02;273320;1267;22467;-84
2023/09/20 20:13:09;;;;;;;11.90;6.40;;;;;;;15.14;100.00;98918.83;273804;1266;22221;-83
2023/09/20 20:19:28;;;;;;;10.00;5.40;;;;;;;15.07;100.00;98914.16;273284;1267;22403;-83
2023/09/20 20:25:38;;;;;;;14.40;6.40;;;;;;;14.92;100.00;98915.77;272394;1267;24963;-83
2023/09/20 20:32:01;;;;;;;13.80;7.30;;;;;;;14.83;100.00;98914.81;273620;1269;22652;-83
2023/09/20 20:38:40;;;;;;;10.50;6.60;;;;;;;14.75;100.00;98911.35;273251;1269;23736;-86
2023/09/20 20:45:03;;;;;;;12.20;7.00;;;;;;;14.62;100.00;98911.42;272157;1270;22547;-83
2023/09/20 20:51:19;;;;;;;11.20;6.70;;;;;;;14.49;100.00;98906.85;273098;1269;22209;-83
2023/09/20 20:57:59;;;;;;;17.10;6.40;;;;;;;14.36;100.00;98899.38;271401;1269;25361;-83
2023/09/20 21:04:09;;;;;;;13.30;6.20;;;;;;;14.28;100.00;98899.90;271665;1269;22375;-84
2023/09/20 21:11:10;;;;;;;9.80;6.40;;;;;;;14.28;100.00;98896.67;272314;1269;22254;-84
2023/09/20 21:17:34;;;;;;;10.40;6.10;;;;;;;14.24;100.00;98898.88;273080;1264;22219;-85
2023/09/20 21:24:17;;;;;;;7.70;5.30;;;;;;;14.07;100.00;98889.28;272590;1269;22482;-85
2023/09/20 21:30:59;;;;;;;10.10;6.50;;;;;;;13.92;100.00;98890.36;273742;1267;22447;-85
2023/09/20 21:37:21;;;;;;;9.00;6.00;;;;;;;13.94;100.00;98893.02;274122;1267;22216;-84
2023/09/20 21:44:06;;;;;;;12.90;7.50;;;;;;;13.96;100.00;98886.56;274092;1270;22170;-84
2023/09/20 21:58:25;;;;;;;11.10;7.00;;;;;;;13.81;100.00;98879.55;274122;1274;22839;-84
2023/09/20 22:04:29;;;;;;;11.60;7.20;;;;;;;13.72;100.00;98872.66;273849;1267;22215;-84
2023/09/20 22:11:12;;;;;;;11.20;6.00;;;;;;;13.68;100.00;98869.70;274090;1267;22236;-84
2023/09/20 22:24:46;;;;;;;8.70;5.70;;;;;;;13.61;100.00;98870.75;273911;1267;22188;-84
2023/09/20 22:31:18;;;;;;;13.40;6.20;;;;;;;13.47;100.00;98862.05;273965;1267;22150;-85
2023/09/20 22:37:42;;;;;;;10.60;6.10;;;;;;;13.34;100.00;98856.19;274017;1275;23327;-84
2023/09/20 22:44:08;;;;;;;13.00;6.10;;;;;;;13.31;100.00;98858.08;273969;1267;23295;-84
2023/09/20 22:50:41;;;;;;;11.90;5.90;;;;;;;13.30;100.00;98848.98;273996;1266;22240;-84
2023/09/20 22:57:06;;;;;;;8.40;5.60;;;;;;;13.27;100.00;98845.38;274097;1267;23384;-85
2023/09/20 23:03:33;;;;;;;11.00;5.50;;;;;;;13.15;100.00;98845.08;274035;1267;22241;-84
2023/09/20 23:09:40;;;;;;;12.70;6.40;;;;;;;13.08;100.00;98847.76;273858;1266;22380;-84
2023/09/20 23:16:07;;;;;;;10.40;5.60;;;;;;;13.05;100.00;98849.33;273853;1268;22195;-84
2023/09/20 23:22:17;;;;;;;8.70;5.80;;;;;;;13.02;100.00;98847.20;273866;1263;23465;-84
2023/09/20 23:29:13;;;;;;;9.20;5.40;;;;;;;13.01;100.00;98849.73;273997;1267;22395;-83
2023/09/20 23:35:57;;;;;;;13.50;5.30;;;;;;;13.01;100.00;98849.25;273996;1267;22256;-83
2023/09/20 23:41:58;;;;;;;9.10;5.00;;;;;;;12.94;100.00;98851.42;273299;1267;22270;-84
2023/09/20 23:48:31;;;;;;;8.40;4.80;;;;;;;12.84;100.00;98849.16;272894;1267;23673;-83
2023/09/20 23:55:06;;;;;;;11.70;5.40;;;;;;;12.77;100.00;98846.17;272551;1267;23177;-84
